The Ridgeway Revenge
Skip Navigation Links
Results
Team Results
Course Map
Past Results
Race Stats
Smartphone Results
18 June 2016
HyperLink
Click your name for detailed results
Page 1 of 4 (176 items)
[1]234
Pos
Bib No
Fav
Share
Print
Name
Gun Time
Chip Time
Category
Cat Pos
Gender
Gen Pos
Team
Pace
1259Matt HODEY1:33:24.81:33:22.5Sen1Male1  8.4 m/hr
2263Richard HYETT1:44:50.81:44:30.6Sen2Male2  7.5 m/hr
3209Patrick COOPER1:45:55.81:45:52.7Sen3Male3  7.4 m/hr
4257Gary HERRING1:46:05.81:46:05.1Sen4Male4  7.4 m/hr
5198Richard BURBIDGE1:46:09.51:46:07.5V401Male5HIGHWORTH RUNNING CLUB 7.4 m/hr
6194James BRUDENELL1:46:27.51:46:25.7V402Male6  7.4 m/hr
7364Matt WHEATLEY1:46:29.71:46:26.2Sen5Male7  7.4 m/hr
8341John TAYLOR1:46:33.21:46:25.2V501Male8BRITISH AIRWAYS RUNNERS 7.4 m/hr
9324Ian SHELLEY1:46:41.11:46:09.6V403Male9  7.4 m/hr
10357Matvey VIKHROV1:46:43.81:46:37.5Sen6Male10  7.4 m/hr
11321Paul SCULLION1:47:09.61:47:08.0Sen7Male11  7.3 m/hr
12376Nick WOODLAND1:47:22.41:47:17.5V404Male12  7.3 m/hr
13373Ashley WILLIAMS1:47:22.81:47:17.1Sen8Male13  7.3 m/hr
14244Darren GREEN1:47:42.61:47:35.8Sen9Male14  7.3 m/hr
15360Toby WARREN1:47:50.91:47:50.9Sen10Male15  7.3 m/hr
16338Peter SUMMERS1:47:55.51:47:55.3V405Male16  7.3 m/hr
17330Neil SMITH1:47:57.21:47:53.9V406Male17  7.3 m/hr
18204Richard CHRISTOPHER1:48:02.91:47:59.9V407Male18  7.3 m/hr
19241Alastair GOGGINS1:48:03.01:48:03.0V408Male19  7.3 m/hr
20308Lee PLANK1:48:28.91:48:27.6Sen11Male20HIGHWORTH RUNNING CLUB 7.2 m/hr
21262Andrea WEST1:48:39.11:48:32.3Sen1Female1  7.2 m/hr
22381David RICHARDS1:48:57.31:48:56.8V409Male21  7.2 m/hr
23335Jason STONEHAM1:49:18.81:49:12.9V4010Male22  7.2 m/hr
24293Paul MOSS1:49:36.71:49:35.2Sen12Male23  7.2 m/hr
25289Chris MIDWINTER1:49:44.21:49:41.7Sen13Male24  7.2 m/hr
26309Victoria PLUMMER1:50:52.01:50:51.0Sen2Female2  7.1 m/hr
27205David CHURCHILL1:51:41.11:51:36.6V502Male25  7.0 m/hr
28344Geri TAYLOR1:52:18.71:52:12.9Sen3Female3  7.0 m/hr
29322Bob SEYMOUR1:52:37.71:52:36.2V4011Male26  7.0 m/hr
30177Xose ALVAREZ FERNANDEZ1:53:20.71:53:17.2V4012Male27  6.9 m/hr
31202Sarah CHEW1:53:34.01:53:28.6Sen4Female4RUN SWINDON 6.9 m/hr
32329William SMITH1:53:48.31:53:34.8Sen14Male28  6.9 m/hr
33201Chris CARTER1:54:03.41:54:01.6V4013Male29HIGHWORTH RUNNING CLUB 6.9 m/hr
34375Graeme WINSPEAR1:54:11.21:53:59.9Sen15Male30  6.9 m/hr
35281Jacqui MACQUISTEN1:54:26.51:54:25.6V501Female5  6.9 m/hr
36303Kevin PAINE1:54:27.11:54:19.9V4014Male31  6.9 m/hr
37348Ruth TUCKER1:54:36.51:54:34.0V401Female6  6.9 m/hr
38298Richard NIBLETT1:54:38.01:54:36.7Sen16Male32BAKERS BUDDIES 6.9 m/hr
39216Carl DAWSON1:55:02.81:54:56.3V4015Male33  6.8 m/hr
40291Freddie MOORHEAD1:55:30.11:55:25.2Sen17Male34MOORHEAD 6.8 m/hr
41195Ally BRYANT1:56:24.61:56:19.6V402Female7RUN SWINDON 6.8 m/hr
42225Mark EDWARDS1:57:57.41:57:45.6V503Male35  6.7 m/hr
43345Mark THOMSON1:58:05.91:58:02.2V4016Male36  6.7 m/hr
44356Nick VICKARS1:58:06.21:58:00.0Sen18Male37  6.7 m/hr
45359Philip WALKER1:58:13.71:58:07.5Sen19Male38  6.6 m/hr
46199Nick BYFIELD1:58:21.81:58:19.4V504Male39  6.6 m/hr
47372Jack WILLIAMS1:58:37.21:58:29.8Sen20Male40  6.6 m/hr
48206James CLAPP1:59:11.11:59:11.1Sen21Male41  6.6 m/hr
49320Christina RYCROFT1:59:18.21:59:12.7V502Female8  6.6 m/hr
50318Ian ROBERTS1:59:28.71:59:28.7V505Male42  6.6 m/hr
Page 1 of 4 (176 items)
[1]234
fb